Time;durP1;ratioP1;P1;durP2;ratioP2;P2;SDS_P1;SDS_P2;PMS_P1;PMS_P2;Temp;Humidity;BMP_temperature;BMP_pressure;BME280_temperature;BME280_humidity;BME280_pressure;Samples;Min_cycle;Max_cycle;Signal;HPM_P1;HPM_P2
2024/03/08 00:01:32;;;;;;;30.90;22.20;;;;;;;1.44;100.00;99581.23;109657;1250;59076;-72
2024/03/08 00:03:58;;;;;;;34.30;21.70;;;;;;;1.44;100.00;99584.38;109655;1249;59262;-71
2024/03/08 00:06:25;;;;;;;30.10;22.30;;;;;;;1.44;100.00;99584.73;109715;1249;59047;-72
2024/03/08 00:08:51;;;;;;;33.10;22.60;;;;;;;1.43;100.00;99586.16;109706;1250;59242;-72
2024/03/08 00:11:18;;;;;;;28.20;19.90;;;;;;;1.41;100.00;99582.01;109663;1250;59086;-72
2024/03/08 00:13:44;;;;;;;28.80;20.50;;;;;;;1.40;100.00;99577.65;109657;1250;59044;-72
2024/03/08 00:16:12;;;;;;;31.50;22.80;;;;;;;1.40;100.00;99574.31;109646;1250;58970;-73
2024/03/08 00:18:38;;;;;;;29.70;21.60;;;;;;;1.40;100.00;99573.27;109698;1250;59203;-73
2024/03/08 00:21:05;;;;;;;29.70;21.60;;;;;;;1.40;100.00;99572.92;109511;1249;59950;-72
2024/03/08 00:23:33;;;;;;;31.90;22.10;;;;;;;1.39;100.00;99571.88;109664;1251;58967;-72
2024/03/08 00:25:59;;;;;;;35.60;22.50;;;;;;;1.39;100.00;99570.83;108175;1250;1002528;-72
2024/03/08 00:28:27;;;;;;;29.20;22.20;;;;;;;1.38;100.00;99565.41;109504;1250;59086;-71
2024/03/08 00:30:53;;;;;;;26.80;20.70;;;;;;;1.36;100.00;99561.61;109682;1250;58980;-72
2024/03/08 00:33:20;;;;;;;29.10;22.40;;;;;;;1.35;100.00;99562.00;109496;1250;59248;-73
2024/03/08 00:35:47;;;;;;;29.50;21.80;;;;;;;1.33;100.00;99560.81;109659;1250;59053;-71
2024/03/08 00:38:13;;;;;;;29.70;21.40;;;;;;;1.32;100.00;99557.86;109658;1250;62775;-72
2024/03/08 00:40:40;;;;;;;28.30;22.10;;;;;;;1.31;100.00;99558.21;109669;1249;58971;-73
2024/03/08 00:43:06;;;;;;;30.10;22.20;;;;;;;1.30;100.00;99559.98;109410;1250;59446;-73
2024/03/08 00:45:33;;;;;;;31.70;22.60;;;;;;;1.28;100.00;99561.42;109672;1250;59545;-72
2024/03/08 00:48:00;;;;;;;29.80;22.50;;;;;;;1.27;100.00;99554.80;109688;1250;59198;-72
2024/03/08 00:50:26;;;;;;;32.10;23.80;;;;;;;1.28;100.00;99554.41;109663;1251;63771;-73
2024/03/08 00:52:53;;;;;;;34.80;24.90;;;;;;;1.29;100.00;99553.35;109640;1250;59526;-73
2024/03/08 00:55:20;;;;;;;28.10;22.50;;;;;;;1.28;100.00;99553.89;109688;1249;59288;-74
2024/03/08 00:57:46;;;;;;;29.60;22.70;;;;;;;1.28;100.00;99548.65;109688;1250;64857;-72
2024/03/08 01:00:13;;;;;;;32.20;23.60;;;;;;;1.28;100.00;99545.86;109718;1250;59084;-72
2024/03/08 01:02:40;;;;;;;31.20;22.40;;;;;;;1.26;100.00;99545.71;109676;1250;62654;-73
2024/03/08 01:05:07;;;;;;;32.00;22.60;;;;;;;1.25;100.00;99542.23;109498;1250;59112;-72
2024/03/08 01:07:35;;;;;;;30.00;22.30;;;;;;;1.25;100.00;99539.97;109671;1250;59163;-73
2024/03/08 01:10:03;;;;;;;32.80;22.60;;;;;;;1.23;100.00;99538.24;109653;1250;65791;-73
2024/03/08 01:12:29;;;;;;;30.20;22.80;;;;;;;1.22;100.00;99537.23;109714;1249;59009;-73
2024/03/08 01:14:57;;;;;;;29.50;22.10;;;;;;;1.19;100.00;99536.23;109678;1250;63987;-73
2024/03/08 01:17:24;;;;;;;29.30;22.30;;;;;;;1.19;100.00;99533.27;109670;1249;59018;-73
2024/03/08 01:19:50;;;;;;;29.70;22.20;;;;;;;1.17;100.00;99530.32;109665;1249;58867;-73
2024/03/08 01:22:16;;;;;;;29.70;23.00;;;;;;;1.17;100.00;99527.34;109708;1250;59701;-73
2024/03/08 01:24:43;;;;;;;29.70;22.30;;;;;;;1.16;100.00;99518.44;109674;1250;59386;-71
2024/03/08 01:27:09;;;;;;;33.30;25.00;;;;;;;1.15;100.00;99516.88;109668;1250;60012;-74
2024/03/08 01:29:36;;;;;;;28.90;21.60;;;;;;;1.14;100.00;99511.85;109478;1249;59062;-71
2024/03/08 01:32:03;;;;;;;27.80;21.10;;;;;;;1.13;100.00;99510.28;109717;1251;59598;-73
2024/03/08 01:34:29;;;;;;;33.00;23.80;;;;;;;1.12;100.00;99511.36;109606;1250;64859;-73
2024/03/08 01:36:57;;;;;;;32.20;22.90;;;;;;;1.12;100.00;99508.55;109384;1254;59371;-71
2024/03/08 01:39:24;;;;;;;32.00;22.10;;;;;;;1.11;100.00;99505.60;109531;1250;65182;-72
2024/03/08 01:41:51;;;;;;;31.50;22.10;;;;;;;1.10;100.00;99501.06;109566;1250;59027;-73
2024/03/08 01:44:17;;;;;;;30.90;22.50;;;;;;;1.08;100.00;99500.59;109542;1250;59051;-73
2024/03/08 01:46:45;;;;;;;30.80;23.30;;;;;;;1.06;100.00;99502.89;109556;1250;65758;-73
2024/03/08 01:49:13;;;;;;;37.00;24.60;;;;;;;1.04;100.00;99503.63;109578;1250;59068;-73
2024/03/08 01:51:41;;;;;;;34.30;24.30;;;;;;;1.02;100.00;99505.24;109584;1250;64045;-71
2024/03/08 01:54:10;;;;;;;33.60;25.00;;;;;;;1.01;100.00;99504.92;109493;1251;59070;-72
2024/03/08 01:56:37;;;;;;;34.30;24.30;;;;;;;1.00;100.00;99505.13;109582;1251;58967;-72
2024/03/08 01:59:05;;;;;;;33.10;24.10;;;;;;;0.99;100.00;99504.78;109545;1250;66069;-72
2024/03/08 02:01:33;;;;;;;31.30;22.30;;;;;;;0.99;100.00;99501.82;109549;1250;60153;-71
2024/03/08 02:04:00;;;;;;;33.90;24.80;;;;;;;0.97;100.00;99498.16;109580;1250;62780;-72
2024/03/08 02:06:26;;;;;;;32.50;22.40;;;;;;;0.97;100.00;99498.53;109527;1250;58959;-73
2024/03/08 02:08:53;;;;;;;35.90;24.80;;;;;;;0.96;100.00;99495.75;109551;1251;59071;-73
2024/03/08 02:11:20;;;;;;;35.90;24.20;;;;;;;0.94;100.00;99490.70;109594;1250;64475;-74
2024/03/08 02:13:47;;;;;;;31.80;24.20;;;;;;;0.93;100.00;99489.34;109567;1250;59056;-73
2024/03/08 02:16:20;;;;;;;36.50;24.30;;;;;;;0.92;100.00;99489.34;109531;1250;63879;-73
2024/03/08 02:18:46;;;;;;;38.20;25.10;;;;;;;0.90;100.00;99491.14;109526;1251;58973;-74
2024/03/08 02:21:15;;;;;;;39.20;27.60;;;;;;;0.88;100.00;99487.50;109540;1250;59249;-72
2024/03/08 02:23:41;;;;;;;34.20;25.00;;;;;;;0.87;100.00;99487.36;109555;1250;66032;-72
2024/03/08 02:26:07;;;;;;;34.30;25.10;;;;;;;0.86;100.00;99484.58;109580;1250;59338;-72
2024/03/08 02:28:34;;;;;;;37.90;25.60;;;;;;;0.84;100.00;99482.15;109538;1250;59060;-72
2024/03/08 02:31:02;;;;;;;36.70;26.40;;;;;;;0.82;100.00;99479.92;109358;1251;59033;-73
2024/03/08 02:33:28;;;;;;;32.10;24.70;;;;;;;0.80;100.00;99478.58;109572;1250;58959;-72
2024/03/08 02:35:58;;;;;;;35.00;25.10;;;;;;;0.76;100.00;99481.45;109530;1250;66210;-73
2024/03/08 02:38:24;;;;;;;36.40;23.80;;;;;;;0.72;100.00;99484.14;109534;1250;59274;-72
2024/03/08 02:40:52;;;;;;;33.30;25.50;;;;;;;0.69;100.00;99480.18;109333;1251;62918;-73
2024/03/08 02:43:22;;;;;;;32.50;23.10;;;;;;;0.68;100.00;99480.37;109535;1250;59014;-73
2024/03/08 02:45:49;;;;;;;34.40;25.20;;;;;;;0.67;100.00;99479.36;109583;1250;59962;-72
2024/03/08 02:48:18;;;;;;;35.00;25.20;;;;;;;0.67;100.00;99476.03;109370;1251;65033;-73
2024/03/08 02:50:45;;;;;;;34.90;25.20;;;;;;;0.67;100.00;99475.85;109590;1250;59037;-73
2024/03/08 02:53:12;;;;;;;33.40;25.80;;;;;;;0.68;100.00;99479.33;109576;1250;59067;-73
2024/03/08 02:55:40;;;;;;;33.70;24.00;;;;;;;0.68;100.00;99482.81;109578;1250;59027;-72
2024/03/08 02:58:10;;;;;;;35.10;25.00;;;;;;;0.69;100.00;99484.57;109586;1250;58976;-72
2024/03/08 03:00:38;;;;;;;30.80;21.70;;;;;;;0.71;100.00;99485.57;109601;1250;65887;-72
2024/03/08 03:03:06;;;;;;;30.60;24.50;;;;;;;0.73;100.00;99483.42;109412;1251;59387;-72
2024/03/08 03:05:33;;;;;;;34.60;24.80;;;;;;;0.74;100.00;99484.80;109584;1250;64224;-72
2024/03/08 03:08:00;;;;;;;35.80;24.00;;;;;;;0.75;100.00;99477.45;109551;1250;58958;-72
2024/03/08 03:10:26;;;;;;;34.90;25.10;;;;;;;0.74;100.00;99475.89;109568;1250;59044;-71
2024/03/08 03:12:53;;;;;;;36.20;24.40;;;;;;;0.72;100.00;99476.28;109633;1250;75813;-72
2024/03/08 03:15:19;;;;;;;31.30;23.20;;;;;;;0.69;100.00;99475.27;109598;1250;59440;-72
2024/03/08 03:17:52;;;;;;;35.60;24.70;;;;;;;0.66;100.00;99473.41;109598;1250;59874;-71
2024/03/08 03:20:25;;;;;;;34.50;24.60;;;;;;;0.64;100.00;99473.79;109562;1250;59444;-72
2024/03/08 03:22:52;;;;;;;36.80;25.20;;;;;;;0.61;100.00;99470.19;109564;1250;59027;-72
2024/03/08 03:25:28;;;;;;;37.90;25.70;;;;;;;0.60;100.00;99468.10;109562;1250;66139;-72
2024/03/08 03:27:58;;;;;;;34.50;25.20;;;;;;;0.58;100.00;99471.98;109520;1250;60261;-73
2024/03/08 03:30:26;;;;;;;32.50;25.20;;;;;;;0.56;100.00;99469.40;109561;1250;64033;-73
2024/03/08 03:32:54;;;;;;;33.60;25.50;;;;;;;0.53;100.00;99466.48;109401;1251;59339;-72
2024/03/08 03:35:21;;;;;;;39.60;25.80;;;;;;;0.52;100.00;99469.14;109561;1250;59448;-71
2024/03/08 03:38:01;;;;;;;35.20;25.30;;;;;;;0.51;100.00;99473.18;109573;1250;65744;-72
2024/03/08 03:40:28;;;;;;;36.00;26.60;;;;;;;0.50;100.00;99472.67;109589;1250;60131;-73
2024/03/08 03:42:56;;;;;;;35.90;25.90;;;;;;;0.51;100.00;99474.40;109582;1250;63765;-71
2024/03/08 03:45:23;;;;;;;34.10;25.00;;;;;;;0.51;100.00;99476.14;109565;1250;59011;-72
2024/03/08 03:47:51;;;;;;;35.70;26.00;;;;;;;0.53;100.00;99471.58;109635;1250;59000;-72
2024/03/08 03:50:19;;;;;;;37.10;26.10;;;;;;;0.53;100.00;99470.89;109590;1250;64549;-71
2024/03/08 03:52:46;;;;;;;33.50;25.30;;;;;;;0.54;100.00;99473.29;109580;1250;59440;-73
2024/03/08 03:55:13;;;;;;;35.80;24.70;;;;;;;0.55;100.00;99471.00;109549;1250;62642;-72
2024/03/08 03:57:40;;;;;;;31.60;22.70;;;;;;;0.56;100.00;99470.82;109528;1250;59017;-72
2024/03/08 04:00:10;;;;;;;34.40;23.60;;;;;;;0.57;100.00;99470.79;109587;1250;58980;-73
2024/03/08 04:02:38;;;;;;;33.80;24.40;;;;;;;0.58;100.00;99471.29;109394;1251;66277;-71
2024/03/08 04:05:06;;;;;;;34.20;25.50;;;;;;;0.60;100.00;99472.13;109580;1250;59819;-72
2024/03/08 04:07:34;;;;;;;37.00;26.10;;;;;;;0.60;100.00;99469.15;109553;1250;64145;-72
2024/03/08 04:10:06;;;;;;;35.20;24.70;;;;;;;0.60;100.00;99466.36;109569;1250;59070;-72
2024/03/08 04:12:35;;;;;;;33.40;22.80;;;;;;;0.57;100.00;99464.50;109566;1250;59106;-73
2024/03/08 04:15:02;;;;;;;32.80;24.10;;;;;;;0.55;100.00;99463.66;109537;1250;65391;-72
2024/03/08 04:17:29;;;;;;;32.50;24.00;;;;;;;0.53;100.00;99464.58;109550;1250;61003;-72
2024/03/08 04:19:55;;;;;;;32.20;23.80;;;;;;;0.55;100.00;99465.59;109530;1250;62599;-72
2024/03/08 04:22:22;;;;;;;35.00;24.90;;;;;;;0.57;100.00;99466.06;109558;1250;59005;-73
2024/03/08 04:24:49;;;;;;;33.40;24.90;;;;;;;0.59;100.00;99465.51;109583;1250;59021;-73
2024/03/08 04:27:15;;;;;;;34.40;24.00;;;;;;;0.61;100.00;99464.77;109545;1250;58910;-73
2024/03/08 04:29:42;;;;;;;35.50;24.40;;;;;;;0.63;100.00;99464.91;109583;1250;59223;-72
2024/03/08 04:32:10;;;;;;;30.10;23.10;;;;;;;0.64;100.00;99464.88;109584;1250;64032;-73
2024/03/08 04:34:37;;;;;;;31.20;23.30;;;;;;;0.65;100.00;99463.46;109531;1251;59178;-72
2024/03/08 04:37:04;;;;;;;33.00;21.90;;;;;;;0.65;100.00;99465.56;109579;1251;59081;-73
2024/03/08 04:39:31;;;;;;;28.80;22.20;;;;;;;0.65;100.00;99468.35;109564;1250;66111;-73
2024/03/08 04:42:06;;;;;;;31.50;23.20;;;;;;;0.66;100.00;99471.50;109559;1251;59006;-73
2024/03/08 04:44:33;;;;;;;30.30;22.20;;;;;;;0.67;100.00;99470.09;109549;1250;64974;-72
2024/03/08 04:47:00;;;;;;;30.80;23.40;;;;;;;0.68;100.00;99468.32;109568;1250;58994;-72
2024/03/08 04:49:27;;;;;;;33.50;23.10;;;;;;;0.69;100.00;99470.92;109556;1250;59265;-71
2024/03/08 04:51:54;;;;;;;32.80;23.30;;;;;;;0.70;100.00;99468.44;109523;1250;64409;-73
2024/03/08 04:54:21;;;;;;;27.20;22.10;;;;;;;0.71;100.00;99471.92;109569;1250;60117;-72
2024/03/08 04:56:47;;;;;;;31.10;23.20;;;;;;;0.72;100.00;99469.12;109565;1250;59190;-72
2024/03/08 04:59:14;;;;;;;29.10;22.00;;;;;;;0.72;100.00;99468.41;109355;1251;59269;-73
2024/03/08 05:01:40;;;;;;;26.40;20.60;;;;;;;0.72;100.00;99465.97;109563;1250;59173;-73
2024/03/08 05:04:07;;;;;;;28.40;22.30;;;;;;;0.72;100.00;99466.30;109581;1250;59075;-72
2024/03/08 05:06:33;;;;;;;27.90;21.30;;;;;;;0.73;100.00;99469.95;109560;1250;59059;-72
2024/03/08 05:08:59;;;;;;;28.20;22.20;;;;;;;0.73;100.00;99472.56;109532;1250;59085;-72
2024/03/08 05:11:26;;;;;;;25.50;19.70;;;;;;;0.74;100.00;99473.27;109546;1250;59013;-73
2024/03/08 05:13:53;;;;;;;28.80;21.40;;;;;;;0.74;100.00;99478.86;108801;1250;1002860;-72
2024/03/08 05:16:22;;;;;;;32.70;23.20;;;;;;;0.74;100.00;99476.05;109554;1250;65962;-72
2024/03/08 05:18:49;;;;;;;28.10;21.30;;;;;;;0.75;100.00;99478.83;109587;1250;59177;-73
2024/03/08 05:21:17;;;;;;;30.20;21.30;;;;;;;0.76;100.00;99481.09;109535;1250;63973;-72
2024/03/08 05:23:43;;;;;;;30.00;22.20;;;;;;;0.77;100.00;99485.63;109567;1250;59038;-72
2024/03/08 05:26:10;;;;;;;28.70;21.80;;;;;;;0.78;100.00;99485.77;109527;1250;59036;-73
2024/03/08 05:28:36;;;;;;;31.50;22.60;;;;;;;0.79;100.00;99486.80;109555;1250;59300;-73
2024/03/08 05:31:03;;;;;;;27.70;21.70;;;;;;;0.79;100.00;99483.14;109584;1250;59064;-73
2024/03/08 05:33:30;;;;;;;31.20;22.30;;;;;;;0.80;100.00;99483.64;109366;1251;64562;-73
2024/03/08 05:35:56;;;;;;;31.90;22.50;;;;;;;0.81;100.00;99479.25;109547;1250;59143;-72
2024/03/08 05:38:22;;;;;;;30.80;23.60;;;;;;;0.82;100.00;99481.16;109589;1250;59067;-73
2024/03/08 05:40:50;;;;;;;29.40;22.40;;;;;;;0.83;100.00;99485.00;109547;1250;59055;-73
2024/03/08 05:43:19;;;;;;;33.40;22.70;;;;;;;0.83;100.00;99486.19;108764;1250;1002896;-73
2024/03/08 05:45:46;;;;;;;32.70;22.30;;;;;;;0.84;100.00;99486.35;109545;1250;64156;-74
2024/03/08 05:48:13;;;;;;;33.60;24.60;;;;;;;0.86;100.00;99488.95;109557;1250;59178;-73
2024/03/08 05:50:40;;;;;;;32.10;24.10;;;;;;;0.88;100.00;99487.52;109537;1250;59079;-73
2024/03/08 05:53:06;;;;;;;34.60;25.20;;;;;;;0.91;100.00;99489.73;109563;1251;58958;-73
2024/03/08 05:55:35;;;;;;;30.60;22.10;;;;;;;0.93;100.00;99491.95;109563;1251;59228;-72
2024/03/08 05:58:02;;;;;;;34.30;22.70;;;;;;;0.95;100.00;99491.92;109551;1251;62722;-72
2024/03/08 06:00:31;;;;;;;32.30;23.70;;;;;;;0.96;100.00;99495.21;109566;1250;59050;-73
2024/03/08 06:02:58;;;;;;;36.00;24.70;;;;;;;0.98;100.00;99490.46;109535;1250;59031;-72
2024/03/08 06:05:25;;;;;;;30.40;23.60;;;;;;;0.99;100.00;99491.65;109519;1250;64985;-73
2024/03/08 06:07:53;;;;;;;36.40;25.20;;;;;;;1.01;100.00;99487.60;109582;1250;59260;-73
2024/03/08 06:10:19;;;;;;;33.30;24.70;;;;;;;1.01;100.00;99492.66;109558;1250;64095;-72
2024/03/08 06:12:46;;;;;;;37.80;27.40;;;;;;;1.03;100.00;99492.64;109540;1251;59029;-72
2024/03/08 06:15:15;;;;;;;32.70;25.50;;;;;;;1.06;100.00;99487.67;109565;1250;59126;-77
2024/03/08 06:17:42;;;;;;;33.60;25.80;;;;;;;1.10;100.00;99488.29;109581;1251;66067;-74
2024/03/08 06:20:12;;;;;;;36.00;25.80;;;;;;;1.14;100.00;99489.09;109527;1250;59062;-78
2024/03/08 06:22:40;;;;;;;34.60;26.80;;;;;;;1.16;100.00;99493.07;109512;1250;64207;-76
2024/03/08 06:25:16;;;;;;;38.20;27.30;;;;;;;1.21;100.00;99494.70;109536;1250;58980;-77
2024/03/08 06:27:43;;;;;;;33.90;26.80;;;;;;;1.27;100.00;99495.11;109668;1250;58966;-76
2024/03/08 06:30:10;;;;;;;38.60;29.00;;;;;;;1.30;100.00;99492.40;109649;1250;64395;-76
2024/03/08 06:32:37;;;;;;;35.60;26.50;;;;;;;1.36;100.00;99490.02;109384;1250;60402;-77
2024/03/08 06:35:06;;;;;;;37.00;27.70;;;;;;;1.40;100.00;99491.33;109694;1250;65207;-77
2024/03/08 06:37:33;;;;;;;38.70;28.70;;;;;;;1.43;100.00;99491.98;109675;1250;58953;-79
2024/03/08 06:40:00;;;;;;;39.20;29.20;;;;;;;1.45;100.00;99487.38;109646;1250;58937;-83
2024/03/08 06:42:34;;;;;;;39.70;29.20;;;;;;;1.46;100.00;99488.75;109644;1250;64627;-82
2024/03/08 06:45:04;;;;;;;35.80;26.90;;;;;;;1.47;100.00;99485.73;109695;1251;59024;-83
2024/03/08 06:47:31;;;;;;;42.30;29.00;;;;;;;1.49;100.00;99486.39;109613;1250;63020;-83
2024/03/08 06:49:58;;;;;;;37.30;28.90;;;;;;;1.52;100.00;99487.04;109748;1250;58965;-85
2024/03/08 06:52:25;;;;;;;39.10;29.70;;;;;;;1.55;100.00;99489.61;109600;1250;58966;-83
2024/03/08 06:54:52;;;;;;;37.70;27.60;;;;;;;1.59;100.00;99490.73;109543;1251;65748;-83
2024/03/08 06:57:21;;;;;;;37.90;28.80;;;;;;;1.63;100.00;99490.48;109519;1250;59872;-76
2024/03/08 06:59:49;;;;;;;39.20;29.20;;;;;;;1.66;100.00;99485.66;109521;1250;63725;-78
2024/03/08 07:02:15;;;;;;;38.70;28.70;;;;;;;1.74;100.00;99481.30;109583;1250;59097;-80
2024/03/08 07:04:42;;;;;;;35.00;26.10;;;;;;;1.84;100.00;99479.64;109571;1249;59068;-81
2024/03/08 07:07:11;;;;;;;36.90;28.00;;;;;;;1.88;100.00;99478.14;109586;1250;66077;-81
2024/03/08 07:09:38;;;;;;;36.30;27.10;;;;;;;1.99;100.00;99474.20;109731;1250;59063;-79
2024/03/08 07:12:05;;;;;;;33.70;26.50;;;;;;;2.17;100.00;99477.09;109616;1249;62967;-85
2024/03/08 07:14:32;;;;;;;30.60;24.50;;;;;;;2.30;100.00;99476.95;109583;1250;59043;-86
2024/03/08 07:16:58;;;;;;;31.90;24.90;;;;;;;2.39;100.00;99472.68;109629;1250;58983;-83
2024/03/08 07:19:25;;;;;;;33.10;25.50;;;;;;;2.43;100.00;99478.19;109640;1250;59660;-84
2024/03/08 07:21:51;;;;;;;29.60;23.90;;;;;;;2.47;100.00;99477.90;109627;1251;59029;-84
2024/03/08 07:26:44;;;;;;;29.50;23.90;;;;;;;2.44;100.00;99475.70;106533;1250;1003092;-84
2024/03/08 07:29:11;;;;;;;30.00;23.60;;;;;;;2.45;100.00;99476.39;109676;1250;59059;-86
2024/03/08 07:34:07;;;;;;;30.60;24.50;;;;;;;2.55;100.00;99472.44;109623;1251;59918;-80
2024/03/08 07:36:37;;;;;;;28.40;22.10;;;;;;;2.59;100.00;99479.00;109525;1250;63970;-85
2024/03/08 07:39:11;;;;;;;29.90;22.40;;;;;;;2.68;100.00;99483.13;109703;1250;59081;-91
2024/03/08 07:41:39;;;;;;;30.60;21.60;;;;;;;2.77;100.00;99479.38;109641;1254;58955;-86
2024/03/08 07:44:07;;;;;;;28.70;22.30;;;;;;;2.80;100.00;99480.00;109493;1251;65824;-84
2024/03/08 07:46:34;;;;;;;29.30;22.30;;;;;;;2.77;100.00;99478.51;109579;1250;59029;-83
2024/03/08 07:49:00;;;;;;;27.80;21.50;;;;;;;2.79;100.00;99482.13;109586;1250;64073;-83
2024/03/08 07:51:27;;;;;;;25.20;20.60;;;;;;;2.88;100.00;99486.45;109862;1251;59186;-81
2024/03/08 07:53:54;;;;;;;26.20;20.80;;;;;;;2.99;100.00;99485.09;109226;1250;1002431;-83
2024/03/08 07:56:21;;;;;;;27.10;21.50;;;;;;;3.06;100.00;99483.65;109873;1251;66199;-82
2024/03/08 07:58:48;;;;;;;28.40;22.00;;;;;;;3.10;100.00;99487.41;109904;1250;59003;-80
2024/03/08 08:01:18;;;;;;;25.90;21.90;;;;;;;3.14;100.00;99488.89;109119;1257;63337;-86
2024/03/08 08:03:45;;;;;;;35.90;27.60;;;;;;;3.11;100.00;99487.91;108991;1261;59293;-79
2024/03/08 08:06:15;;;;;;;33.70;25.40;;;;;;;3.14;100.00;99483.42;109052;1259;60792;-81
2024/03/08 08:08:42;;;;;;;28.80;22.40;;;;;;;3.20;100.00;99491.71;109142;1258;64746;-82
2024/03/08 08:11:09;;;;;;;29.30;23.50;;;;;;;3.14;100.00;99491.34;109104;1257;59844;-84
2024/03/08 08:13:36;;;;;;;29.80;23.00;;;;;;;3.11;100.00;99488.80;109033;1257;62564;-84
2024/03/08 08:16:03;;;;;;;28.80;22.60;;;;;;;3.08;100.00;99483.07;108962;1263;59010;-79
2024/03/08 08:18:30;;;;;;;27.00;21.40;;;;;;;3.14;100.00;99489.56;109089;1257;58955;-86
2024/03/08 08:20:56;;;;;;;24.70;20.80;;;;;;;3.13;100.00;99491.70;108926;1259;59701;-79
2024/03/08 08:23:23;;;;;;;26.80;22.00;;;;;;;3.06;100.00;99490.52;109137;1257;59014;-88
2024/03/08 08:25:49;;;;;;;25.80;22.20;;;;;;;3.03;100.00;99492.33;109063;1257;63965;-83
2024/03/08 08:28:17;;;;;;;25.40;21.00;;;;;;;3.07;100.00;99492.93;109066;1258;59046;-85
2024/03/08 08:30:44;;;;;;;26.40;21.70;;;;;;;3.11;100.00;99495.65;109105;1260;59024;-86
2024/03/08 08:33:11;;;;;;;28.50;23.10;;;;;;;3.08;100.00;99500.61;109152;1257;64387;-89
2024/03/08 08:35:39;;;;;;;24.40;21.40;;;;;;;3.05;100.00;99494.41;109164;1257;58950;-86
2024/03/08 08:38:07;;;;;;;28.50;23.90;;;;;;;2.95;100.00;99496.95;108904;1262;64015;-86
2024/03/08 08:40:35;;;;;;;26.60;22.50;;;;;;;2.86;100.00;99505.27;108798;1261;59477;-81
2024/03/08 08:43:05;;;;;;;28.60;21.80;;;;;;;2.82;100.00;99502.57;108880;1263;58966;-82
2024/03/08 08:45:32;;;;;;;27.30;22.30;;;;;;;2.78;100.00;99503.57;108872;1262;64531;-80
2024/03/08 08:47:59;;;;;;;25.90;21.00;;;;;;;2.76;100.00;99505.89;108830;1261;60250;-92
2024/03/08 08:50:28;;;;;;;36.20;25.60;;;;;;;2.76;100.00;99502.05;108697;1263;63781;-86
2024/03/08 08:52:55;;;;;;;29.70;23.30;;;;;;;2.82;100.00;99499.77;108633;1265;59558;-79
2024/03/08 08:55:25;;;;;;;29.50;23.50;;;;;;;2.84;100.00;99500.41;108716;1265;59015;-82
2024/03/08 08:57:51;;;;;;;;;;;;;;;2.82;100.00;99503.82;108616;1265;66472;-85
2024/03/08 09:00:23;;;;;;;30.10;23.20;;;;;;;2.76;100.00;99504.50;108641;1263;59761;-85
2024/03/08 09:02:50;;;;;;;29.30;22.90;;;;;;;2.73;100.00;99504.41;108622;1263;62978;-85
2024/03/08 09:05:17;;;;;;;31.40;25.10;;;;;;;2.75;100.00;99496.97;108681;1263;59212;-84
2024/03/08 09:07:47;;;;;;;33.90;23.30;;;;;;;2.79;100.00;99498.27;108734;1265;59075;-89
2024/03/08 09:10:14;;;;;;;30.60;25.10;;;;;;;2.79;100.00;99499.15;108741;1261;64754;-84
2024/03/08 09:12:41;;;;;;;31.30;24.50;;;;;;;2.80;100.00;99495.61;108991;1260;59138;-88
2024/03/08 09:15:30;;;;;;;30.40;24.10;;;;;;;2.85;100.00;99497.06;108904;1260;64135;-94
2024/03/08 09:17:57;;;;;;;32.60;24.30;;;;;;;2.92;100.00;99496.16;108811;1263;58953;-91
2024/03/08 09:20:24;;;;;;;27.80;23.50;;;;;;;3.02;100.00;99491.15;108704;1263;59101;-87
2024/03/08 09:22:51;;;;;;;29.60;23.20;;;;;;;3.04;100.00;99492.14;108851;1263;66074;-93
2024/03/08 09:25:18;;;;;;;30.70;23.90;;;;;;;3.01;100.00;99492.58;108787;1265;59680;-85
2024/03/08 09:27:46;;;;;;;29.10;23.70;;;;;;;3.03;100.00;99489.20;108721;1263;62819;-87
2024/03/08 09:30:13;;;;;;;31.80;25.20;;;;;;;3.12;100.00;99489.98;108712;1263;59114;-83
2024/03/08 09:32:39;;;;;;;29.30;23.30;;;;;;;3.17;100.00;99491.42;108649;1263;59115;-83
2024/03/08 09:35:09;;;;;;;27.40;23.20;;;;;;;3.20;100.00;99492.20;108694;1263;59378;-82
2024/03/08 09:37:36;;;;;;;30.30;24.50;;;;;;;3.26;100.00;99487.98;108626;1265;59251;-82
2024/03/08 09:40:08;;;;;;;29.10;23.50;;;;;;;3.41;100.00;99487.53;108691;1263;64095;-84
2024/03/08 09:42:38;;;;;;;28.40;23.90;;;;;;;3.59;100.00;99482.09;108683;1263;59269;-83
2024/03/08 09:45:10;;;;;;;33.20;24.20;;;;;;;3.69;100.00;99484.60;108336;1268;139856;-83
2024/03/08 09:47:42;;;;;;;27.50;23.40;;;;;;;3.75;100.00;99485.81;108431;1268;65894;-84
2024/03/08 09:50:09;;;;;;;30.20;23.50;;;;;;;3.72;100.00;99484.67;108677;1264;59834;-84
2024/03/08 09:52:37;;;;;;;24.70;21.50;;;;;;;3.64;100.00;99483.34;108646;1266;63849;-83
2024/03/08 09:55:06;;;;;;;28.80;22.80;;;;;;;3.59;100.00;99482.80;108654;1264;59204;-84
2024/03/08 09:57:37;;;;;;;30.80;23.50;;;;;;;3.48;100.00;99486.46;108651;1265;59037;-84
2024/03/08 10:00:18;;;;;;;30.90;23.30;;;;;;;3.49;100.00;99480.29;108666;1265;64758;-83
2024/03/08 10:02:45;;;;;;;29.40;23.80;;;;;;;3.58;100.00;99483.38;108466;1264;59465;-81
2024/03/08 10:05:13;;;;;;;26.50;22.20;;;;;;;3.62;100.00;99483.60;108115;1264;64062;-80
2024/03/08 10:07:40;;;;;;;26.30;21.90;;;;;;;3.61;100.00;99482.75;108654;1264;59074;-82
2024/03/08 10:10:08;;;;;;;28.30;23.60;;;;;;;3.60;100.00;99486.11;108707;1265;59076;-83
2024/03/08 10:12:34;;;;;;;30.40;24.60;;;;;;;3.58;100.00;99486.35;108687;1265;64821;-82
2024/03/08 10:15:01;;;;;;;32.20;25.00;;;;;;;3.58;100.00;99488.09;108688;1266;60135;-80
2024/03/08 10:17:32;;;;;;;31.40;25.30;;;;;;;3.57;100.00;99489.02;108844;1261;59078;-80
2024/03/08 10:19:59;;;;;;;30.90;24.70;;;;;;;3.58;100.00;99490.73;108862;1266;59018;-88
2024/03/08 10:22:26;;;;;;;27.30;23.30;;;;;;;3.54;100.00;99494.20;108125;1260;1002416;-77
2024/03/08 10:24:52;;;;;;;27.90;24.10;;;;;;;3.57;100.00;99490.95;108879;1262;59015;-84
2024/03/08 10:27:19;;;;;;;32.40;25.50;;;;;;;3.69;100.00;99487.93;108891;1260;59267;-77
2024/03/08 10:29:47;;;;;;;28.00;23.50;;;;;;;3.88;100.00;99489.99;108850;1260;59996;-77
2024/03/08 10:32:14;;;;;;;31.30;25.10;;;;;;;3.89;100.00;99491.54;108881;1260;58988;-80
2024/03/08 10:34:41;;;;;;;30.60;24.10;;;;;;;3.89;100.00;99489.95;107379;1262;1002811;-79
2024/03/08 10:37:17;;;;;;;31.30;26.00;;;;;;;3.91;100.00;99491.45;108919;1260;65860;-84
2024/03/08 10:39:59;;;;;;;33.00;25.10;;;;;;;3.96;100.00;99486.91;108906;1263;60175;-81
2024/03/08 10:42:28;;;;;;;29.70;25.00;;;;;;;4.01;100.00;99487.27;108888;1262;62602;-79
2024/03/08 10:45:23;;;;;;;34.00;26.70;;;;;;;4.02;100.00;99484.07;108881;1260;58970;-79
2024/03/08 10:47:54;;;;;;;33.80;26.30;;;;;;;4.03;100.00;99481.08;108867;1263;59011;-82
2024/03/08 10:50:25;;;;;;;33.40;27.20;;;;;;;4.03;100.00;99476.67;108812;1262;66186;-80
2024/03/08 10:52:52;;;;;;;39.20;29.90;;;;;;;4.09;100.00;99470.48;108869;1263;60360;-80
2024/03/08 10:55:20;;;;;;;32.40;26.80;;;;;;;4.29;100.00;99465.60;108931;1261;64099;-80
2024/03/08 10:57:47;;;;;;;28.80;25.10;;;;;;;4.32;100.00;99461.09;108844;1264;59237;-82
2024/03/08 11:00:14;;;;;;;30.50;25.80;;;;;;;4.30;100.00;99463.63;108845;1263;58998;-77
2024/03/08 11:02:44;;;;;;;32.20;27.30;;;;;;;4.39;100.00;99458.92;108912;1260;64823;-80
2024/03/08 11:05:41;;;;;;;33.70;27.90;;;;;;;4.51;100.00;99457.98;108880;1263;59120;-81
2024/03/08 11:08:14;;;;;;;31.00;26.30;;;;;;;4.55;100.00;99454.68;108390;1267;64077;-80
2024/03/08 11:10:55;;;;;;;35.80;25.40;;;;;;;4.59;100.00;99452.08;108432;1267;59055;-80
2024/03/08 11:13:45;;;;;;;27.90;23.80;;;;;;;4.69;100.00;99453.65;108428;1269;58972;-87
2024/03/08 11:16:35;;;;;;;26.50;22.80;;;;;;;4.83;100.00;99452.61;108389;1269;65749;-76
2024/03/08 11:19:10;;;;;;;33.70;25.40;;;;;;;4.83;100.00;99448.41;107871;1273;59173;-77